sensor_id;sensor_type;location;lat;lon;timestamp;P1;durP1;ratioP1;P2;durP2;ratioP2
42294;SDS011;27947;47.556;18.718;2023-04-24T00:01:58;7.50;;;4.32;;
42294;SDS011;27947;47.556;18.718;2023-04-24T00:04:23;11.00;;;4.55;;
42294;SDS011;27947;47.556;18.718;2023-04-24T00:06:51;8.43;;;4.10;;
42294;SDS011;27947;47.556;18.718;2023-04-24T00:09:19;6.15;;;4.65;;
42294;SDS011;27947;47.556;18.718;2023-04-24T00:11:44;9.27;;;4.95;;
42294;SDS011;27947;47.556;18.718;2023-04-24T00:14:09;9.25;;;5.15;;
42294;SDS011;27947;47.556;18.718;2023-04-24T00:16:35;8.05;;;5.00;;
42294;SDS011;27947;47.556;18.718;2023-04-24T00:19:00;9.15;;;5.18;;
42294;SDS011;27947;47.556;18.718;2023-04-24T00:21:26;9.18;;;5.13;;
42294;SDS011;27947;47.556;18.718;2023-04-24T00:23:51;8.73;;;5.32;;
42294;SDS011;27947;47.556;18.718;2023-04-24T00:26:16;15.60;;;5.18;;
42294;SDS011;27947;47.556;18.718;2023-04-24T00:28:42;8.82;;;5.15;;
42294;SDS011;27947;47.556;18.718;2023-04-24T00:31:07;12.75;;;5.50;;
42294;SDS011;27947;47.556;18.718;2023-04-24T00:33:33;13.25;;;5.43;;
42294;SDS011;27947;47.556;18.718;2023-04-24T00:35:59;12.68;;;5.80;;
42294;SDS011;27947;47.556;18.718;2023-04-24T00:38:24;10.48;;;5.85;;
42294;SDS011;27947;47.556;18.718;2023-04-24T00:40:50;8.15;;;5.28;;
42294;SDS011;27947;47.556;18.718;2023-04-24T00:43:16;11.70;;;5.68;;
42294;SDS011;27947;47.556;18.718;2023-04-24T00:45:41;12.30;;;5.72;;
42294;SDS011;27947;47.556;18.718;2023-04-24T00:48:07;10.80;;;4.93;;
42294;SDS011;27947;47.556;18.718;2023-04-24T00:50:32;13.50;;;5.57;;
42294;SDS011;27947;47.556;18.718;2023-04-24T00:52:58;11.63;;;6.22;;
42294;SDS011;27947;47.556;18.718;2023-04-24T00:55:24;11.93;;;6.13;;
42294;SDS011;27947;47.556;18.718;2023-04-24T00:57:50;11.25;;;5.80;;
42294;SDS011;27947;47.556;18.718;2023-04-24T01:00:15;11.55;;;7.22;;
42294;SDS011;27947;47.556;18.718;2023-04-24T01:02:42;10.32;;;6.32;;
42294;SDS011;27947;47.556;18.718;2023-04-24T01:05:12;10.43;;;6.65;;
42294;SDS011;27947;47.556;18.718;2023-04-24T01:07:38;11.23;;;6.28;;
42294;SDS011;27947;47.556;18.718;2023-04-24T01:10:04;9.75;;;6.32;;
42294;SDS011;27947;47.556;18.718;2023-04-24T01:12:30;10.20;;;6.53;;
42294;SDS011;27947;47.556;18.718;2023-04-24T01:14:55;10.30;;;6.68;;
42294;SDS011;27947;47.556;18.718;2023-04-24T01:17:22;8.48;;;6.35;;
42294;SDS011;27947;47.556;18.718;2023-04-24T01:19:47;8.80;;;6.25;;
42294;SDS011;27947;47.556;18.718;2023-04-24T01:22:15;11.32;;;5.53;;
42294;SDS011;27947;47.556;18.718;2023-04-24T01:24:42;9.35;;;6.50;;
42294;SDS011;27947;47.556;18.718;2023-04-24T01:27:08;15.43;;;7.40;;
42294;SDS011;27947;47.556;18.718;2023-04-24T01:29:33;9.90;;;5.97;;
42294;SDS011;27947;47.556;18.718;2023-04-24T01:31:59;9.02;;;6.65;;
42294;SDS011;27947;47.556;18.718;2023-04-24T01:34:25;13.60;;;6.95;;
42294;SDS011;27947;47.556;18.718;2023-04-24T01:36:51;10.15;;;5.90;;
42294;SDS011;27947;47.556;18.718;2023-04-24T01:39:16;13.57;;;6.68;;
42294;SDS011;27947;47.556;18.718;2023-04-24T01:41:42;13.88;;;6.75;;
42294;SDS011;27947;47.556;18.718;2023-04-24T01:44:07;11.68;;;6.72;;
42294;SDS011;27947;47.556;18.718;2023-04-24T01:46:34;11.02;;;6.50;;
42294;SDS011;27947;47.556;18.718;2023-04-24T01:49:00;11.35;;;6.18;;
42294;SDS011;27947;47.556;18.718;2023-04-24T01:51:26;15.52;;;6.75;;
42294;SDS011;27947;47.556;18.718;2023-04-24T01:53:52;8.55;;;6.40;;
42294;SDS011;27947;47.556;18.718;2023-04-24T01:56:19;11.07;;;6.80;;
42294;SDS011;27947;47.556;18.718;2023-04-24T01:58:45;10.70;;;6.50;;
42294;SDS011;27947;47.556;18.718;2023-04-24T02:01:14;10.18;;;6.20;;
42294;SDS011;27947;47.556;18.718;2023-04-24T02:03:40;10.55;;;5.88;;
42294;SDS011;27947;47.556;18.718;2023-04-24T02:06:05;11.05;;;6.18;;
42294;SDS011;27947;47.556;18.718;2023-04-24T02:08:31;11.80;;;6.60;;
42294;SDS011;27947;47.556;18.718;2023-04-24T02:10:56;13.00;;;6.40;;
42294;SDS011;27947;47.556;18.718;2023-04-24T02:13:21;7.93;;;5.32;;
42294;SDS011;27947;47.556;18.718;2023-04-24T02:15:47;12.50;;;6.28;;
42294;SDS011;27947;47.556;18.718;2023-04-24T02:18:12;12.85;;;6.15;;
42294;SDS011;27947;47.556;18.718;2023-04-24T02:20:38;8.43;;;5.72;;
42294;SDS011;27947;47.556;18.718;2023-04-24T02:23:03;11.02;;;6.25;;
42294;SDS011;27947;47.556;18.718;2023-04-24T02:25:28;12.73;;;5.82;;
42294;SDS011;27947;47.556;18.718;2023-04-24T02:27:54;9.68;;;5.93;;
42294;SDS011;27947;47.556;18.718;2023-04-24T02:30:19;10.48;;;5.93;;
42294;SDS011;27947;47.556;18.718;2023-04-24T02:32:45;8.63;;;5.68;;
42294;SDS011;27947;47.556;18.718;2023-04-24T02:35:10;10.13;;;5.78;;
42294;SDS011;27947;47.556;18.718;2023-04-24T02:37:36;8.15;;;5.35;;
42294;SDS011;27947;47.556;18.718;2023-04-24T02:40:01;11.35;;;6.28;;
42294;SDS011;27947;47.556;18.718;2023-04-24T02:42:26;8.13;;;6.18;;
42294;SDS011;27947;47.556;18.718;2023-04-24T02:44:52;9.15;;;5.40;;
42294;SDS011;27947;47.556;18.718;2023-04-24T02:47:17;11.10;;;5.40;;
42294;SDS011;27947;47.556;18.718;2023-04-24T02:49:42;9.05;;;5.35;;
42294;SDS011;27947;47.556;18.718;2023-04-24T02:52:08;10.30;;;5.38;;
42294;SDS011;27947;47.556;18.718;2023-04-24T02:54:33;8.50;;;5.35;;
42294;SDS011;27947;47.556;18.718;2023-04-24T02:56:59;8.73;;;5.20;;
42294;SDS011;27947;47.556;18.718;2023-04-24T02:59:25;6.47;;;5.53;;
42294;SDS011;27947;47.556;18.718;2023-04-24T03:01:52;8.27;;;5.00;;
42294;SDS011;27947;47.556;18.718;2023-04-24T03:04:17;12.38;;;5.50;;
42294;SDS011;27947;47.556;18.718;2023-04-24T03:06:45;7.78;;;5.40;;
42294;SDS011;27947;47.556;18.718;2023-04-24T03:09:12;9.50;;;5.35;;
42294;SDS011;27947;47.556;18.718;2023-04-24T03:11:37;16.13;;;6.47;;
42294;SDS011;27947;47.556;18.718;2023-04-24T03:14:02;10.00;;;5.43;;
42294;SDS011;27947;47.556;18.718;2023-04-24T03:16:28;7.60;;;5.53;;
42294;SDS011;27947;47.556;18.718;2023-04-24T03:18:54;8.18;;;5.65;;
42294;SDS011;27947;47.556;18.718;2023-04-24T03:21:19;9.30;;;5.13;;
42294;SDS011;27947;47.556;18.718;2023-04-24T03:23:45;8.50;;;4.95;;
42294;SDS011;27947;47.556;18.718;2023-04-24T03:26:10;9.63;;;5.68;;
42294;SDS011;27947;47.556;18.718;2023-04-24T03:28:42;8.05;;;5.07;;
42294;SDS011;27947;47.556;18.718;2023-04-24T03:31:08;10.63;;;4.85;;
42294;SDS011;27947;47.556;18.718;2023-04-24T03:33:35;8.00;;;5.47;;
42294;SDS011;27947;47.556;18.718;2023-04-24T03:36:01;8.30;;;5.05;;
42294;SDS011;27947;47.556;18.718;2023-04-24T03:38:34;10.20;;;6.22;;
42294;SDS011;27947;47.556;18.718;2023-04-24T03:41:14;10.50;;;5.90;;
42294;SDS011;27947;47.556;18.718;2023-04-24T03:43:44;8.77;;;5.88;;
42294;SDS011;27947;47.556;18.718;2023-04-24T03:46:10;7.82;;;4.78;;
42294;SDS011;27947;47.556;18.718;2023-04-24T03:48:39;7.32;;;5.07;;
42294;SDS011;27947;47.556;18.718;2023-04-24T03:51:06;8.48;;;5.10;;
42294;SDS011;27947;47.556;18.718;2023-04-24T03:53:33;7.50;;;5.28;;
42294;SDS011;27947;47.556;18.718;2023-04-24T03:55:59;6.47;;;5.13;;
42294;SDS011;27947;47.556;18.718;2023-04-24T03:58:24;6.57;;;4.30;;
42294;SDS011;27947;47.556;18.718;2023-04-24T04:00:50;8.45;;;5.15;;
42294;SDS011;27947;47.556;18.718;2023-04-24T04:03:39;7.63;;;4.78;;
42294;SDS011;27947;47.556;18.718;2023-04-24T04:06:05;8.85;;;4.40;;
42294;SDS011;27947;47.556;18.718;2023-04-24T04:08:30;13.50;;;5.72;;
42294;SDS011;27947;47.556;18.718;2023-04-24T04:10:56;7.78;;;5.07;;
42294;SDS011;27947;47.556;18.718;2023-04-24T04:13:22;7.82;;;5.05;;
42294;SDS011;27947;47.556;18.718;2023-04-24T04:15:48;8.02;;;5.57;;
42294;SDS011;27947;47.556;18.718;2023-04-24T04:18:13;10.07;;;5.68;;
42294;SDS011;27947;47.556;18.718;2023-04-24T04:20:39;13.60;;;5.20;;
42294;SDS011;27947;47.556;18.718;2023-04-24T04:23:04;12.10;;;6.13;;
42294;SDS011;27947;47.556;18.718;2023-04-24T04:25:42;7.15;;;5.32;;
42294;SDS011;27947;47.556;18.718;2023-04-24T04:28:07;8.45;;;5.90;;
42294;SDS011;27947;47.556;18.718;2023-04-24T04:30:33;7.35;;;5.68;;
42294;SDS011;27947;47.556;18.718;2023-04-24T04:33:02;8.68;;;5.90;;
42294;SDS011;27947;47.556;18.718;2023-04-24T04:35:28;10.93;;;5.88;;
42294;SDS011;27947;47.556;18.718;2023-04-24T04:37:54;9.00;;;6.40;;
42294;SDS011;27947;47.556;18.718;2023-04-24T04:40:39;11.73;;;6.10;;
42294;SDS011;27947;47.556;18.718;2023-04-24T04:43:05;8.00;;;5.97;;
42294;SDS011;27947;47.556;18.718;2023-04-24T04:45:38;9.73;;;5.68;;
42294;SDS011;27947;47.556;18.718;2023-04-24T04:48:23;16.15;;;6.38;;
42294;SDS011;27947;47.556;18.718;2023-04-24T04:50:49;8.15;;;5.97;;
42294;SDS011;27947;47.556;18.718;2023-04-24T04:53:15;9.60;;;6.80;;
42294;SDS011;27947;47.556;18.718;2023-04-24T04:55:41;9.63;;;6.57;;
42294;SDS011;27947;47.556;18.718;2023-04-24T04:58:13;9.48;;;6.30;;
42294;SDS011;27947;47.556;18.718;2023-04-24T05:00:38;9.27;;;6.20;;
42294;SDS011;27947;47.556;18.718;2023-04-24T05:03:30;10.05;;;6.85;;
42294;SDS011;27947;47.556;18.718;2023-04-24T05:06:03;11.18;;;6.55;;
42294;SDS011;27947;47.556;18.718;2023-04-24T05:08:32;13.55;;;6.85;;
42294;SDS011;27947;47.556;18.718;2023-04-24T05:10:58;10.50;;;6.90;;
42294;SDS011;27947;47.556;18.718;2023-04-24T05:13:26;12.68;;;6.85;;
42294;SDS011;27947;47.556;18.718;2023-04-24T05:15:51;13.60;;;7.70;;
42294;SDS011;27947;47.556;18.718;2023-04-24T05:18:17;12.15;;;7.30;;
42294;SDS011;27947;47.556;18.718;2023-04-24T05:20:42;12.43;;;7.25;;
42294;SDS011;27947;47.556;18.718;2023-04-24T05:23:11;13.38;;;7.28;;
42294;SDS011;27947;47.556;18.718;2023-04-24T05:25:38;11.35;;;7.15;;
42294;SDS011;27947;47.556;18.718;2023-04-24T05:28:08;10.07;;;6.90;;
42294;SDS011;27947;47.556;18.718;2023-04-24T05:30:34;14.55;;;6.85;;
42294;SDS011;27947;47.556;18.718;2023-04-24T05:33:00;11.65;;;6.75;;
42294;SDS011;27947;47.556;18.718;2023-04-24T05:35:25;11.00;;;7.00;;
42294;SDS011;27947;47.556;18.718;2023-04-24T05:37:50;11.07;;;6.72;;
42294;SDS011;27947;47.556;18.718;2023-04-24T05:40:16;9.93;;;6.28;;
42294;SDS011;27947;47.556;18.718;2023-04-24T05:42:42;12.40;;;7.25;;
42294;SDS011;27947;47.556;18.718;2023-04-24T05:45:07;13.80;;;6.85;;
42294;SDS011;27947;47.556;18.718;2023-04-24T05:47:34;8.48;;;6.68;;
42294;SDS011;27947;47.556;18.718;2023-04-24T05:49:59;11.52;;;6.68;;
42294;SDS011;27947;47.556;18.718;2023-04-24T05:52:25;12.60;;;7.32;;
42294;SDS011;27947;47.556;18.718;2023-04-24T05:54:50;12.52;;;7.15;;
42294;SDS011;27947;47.556;18.718;2023-04-24T05:57:20;14.50;;;7.00;;
42294;SDS011;27947;47.556;18.718;2023-04-24T06:00:06;10.50;;;7.10;;
42294;SDS011;27947;47.556;18.718;2023-04-24T06:02:39;9.50;;;6.15;;
42294;SDS011;27947;47.556;18.718;2023-04-24T06:05:05;9.77;;;6.60;;
42294;SDS011;27947;47.556;18.718;2023-04-24T06:07:31;17.02;;;7.05;;
42294;SDS011;27947;47.556;18.718;2023-04-24T06:09:57;11.57;;;7.40;;
42294;SDS011;27947;47.556;18.718;2023-04-24T06:12:22;14.27;;;8.10;;
42294;SDS011;27947;47.556;18.718;2023-04-24T06:14:56;15.35;;;7.70;;
42294;SDS011;27947;47.556;18.718;2023-04-24T06:17:27;15.18;;;8.00;;
42294;SDS011;27947;47.556;18.718;2023-04-24T06:19:53;12.90;;;8.35;;
42294;SDS011;27947;47.556;18.718;2023-04-24T06:22:20;10.70;;;7.72;;
42294;SDS011;27947;47.556;18.718;2023-04-24T06:24:45;13.57;;;8.20;;
42294;SDS011;27947;47.556;18.718;2023-04-24T06:27:12;13.95;;;8.13;;
42294;SDS011;27947;47.556;18.718;2023-04-24T06:29:39;15.35;;;8.50;;
42294;SDS011;27947;47.556;18.718;2023-04-24T06:32:05;15.70;;;8.40;;
42294;SDS011;27947;47.556;18.718;2023-04-24T06:34:31;14.40;;;7.72;;
42294;SDS011;27947;47.556;18.718;2023-04-24T06:36:58;13.60;;;8.73;;
42294;SDS011;27947;47.556;18.718;2023-04-24T06:39:24;14.35;;;8.40;;
42294;SDS011;27947;47.556;18.718;2023-04-24T06:41:49;15.38;;;8.90;;
42294;SDS011;27947;47.556;18.718;2023-04-24T06:44:19;10.75;;;7.43;;
42294;SDS011;27947;47.556;18.718;2023-04-24T06:46:44;13.98;;;8.52;;
42294;SDS011;27947;47.556;18.718;2023-04-24T06:49:10;13.45;;;8.68;;
42294;SDS011;27947;47.556;18.718;2023-04-24T06:51:35;14.13;;;9.25;;
42294;SDS011;27947;47.556;18.718;2023-04-24T06:54:01;12.95;;;8.57;;
42294;SDS011;27947;47.556;18.718;2023-04-24T06:56:27;13.68;;;8.63;;
42294;SDS011;27947;47.556;18.718;2023-04-24T06:58:53;14.23;;;8.55;;
42294;SDS011;27947;47.556;18.718;2023-04-24T07:01:19;13.98;;;9.23;;
42294;SDS011;27947;47.556;18.718;2023-04-24T07:03:44;13.38;;;8.55;;
42294;SDS011;27947;47.556;18.718;2023-04-24T07:06:10;16.80;;;9.40;;
42294;SDS011;27947;47.556;18.718;2023-04-24T07:08:37;12.90;;;8.88;;
42294;SDS011;27947;47.556;18.718;2023-04-24T07:11:03;11.90;;;8.45;;
42294;SDS011;27947;47.556;18.718;2023-04-24T07:13:28;15.40;;;8.50;;
42294;SDS011;27947;47.556;18.718;2023-04-24T07:15:54;12.77;;;8.57;;
42294;SDS011;27947;47.556;18.718;2023-04-24T07:18:20;12.32;;;8.23;;
42294;SDS011;27947;47.556;18.718;2023-04-24T07:20:45;12.98;;;8.05;;
42294;SDS011;27947;47.556;18.718;2023-04-24T07:23:11;16.95;;;8.60;;
42294;SDS011;27947;47.556;18.718;2023-04-24T07:25:36;12.68;;;8.23;;
42294;SDS011;27947;47.556;18.718;2023-04-24T07:28:03;13.25;;;8.15;;
42294;SDS011;27947;47.556;18.718;2023-04-24T07:30:29;14.48;;;8.68;;
42294;SDS011;27947;47.556;18.718;2023-04-24T07:32:55;11.90;;;8.35;;
42294;SDS011;27947;47.556;18.718;2023-04-24T07:35:20;13.70;;;8.07;;
42294;SDS011;27947;47.556;18.718;2023-04-24T07:37:46;12.77;;;8.95;;
42294;SDS011;27947;47.556;18.718;2023-04-24T07:40:12;11.70;;;8.68;;
42294;SDS011;27947;47.556;18.718;2023-04-24T07:42:37;11.85;;;8.05;;
42294;SDS011;27947;47.556;18.718;2023-04-24T07:45:03;16.55;;;8.38;;
42294;SDS011;27947;47.556;18.718;2023-04-24T07:47:29;14.60;;;8.90;;
42294;SDS011;27947;47.556;18.718;2023-04-24T07:49:54;14.70;;;9.05;;
42294;SDS011;27947;47.556;18.718;2023-04-24T07:52:20;15.02;;;8.82;;
42294;SDS011;27947;47.556;18.718;2023-04-24T07:54:45;9.50;;;7.35;;
42294;SDS011;27947;47.556;18.718;2023-04-24T07:57:10;11.02;;;7.47;;
42294;SDS011;27947;47.556;18.718;2023-04-24T07:59:36;10.38;;;6.88;;
42294;SDS011;27947;47.556;18.718;2023-04-24T08:02:01;10.13;;;7.65;;
42294;SDS011;27947;47.556;18.718;2023-04-24T08:04:26;8.25;;;6.57;;
42294;SDS011;27947;47.556;18.718;2023-04-24T08:06:52;8.13;;;5.60;;
42294;SDS011;27947;47.556;18.718;2023-04-24T08:09:17;9.20;;;5.70;;
42294;SDS011;27947;47.556;18.718;2023-04-24T08:11:43;8.93;;;5.75;;
42294;SDS011;27947;47.556;18.718;2023-04-24T08:14:08;7.32;;;4.97;;
42294;SDS011;27947;47.556;18.718;2023-04-24T08:16:34;8.57;;;5.47;;
42294;SDS011;27947;47.556;18.718;2023-04-24T08:19:00;11.70;;;5.78;;
42294;SDS011;27947;47.556;18.718;2023-04-24T08:21:25;7.57;;;5.75;;
42294;SDS011;27947;47.556;18.718;2023-04-24T08:23:52;9.18;;;5.93;;
42294;SDS011;27947;47.556;18.718;2023-04-24T08:26:17;11.27;;;6.03;;
42294;SDS011;27947;47.556;18.718;2023-04-24T08:28:43;8.68;;;6.68;;
42294;SDS011;27947;47.556;18.718;2023-04-24T08:31:08;9.43;;;7.00;;
42294;SDS011;27947;47.556;18.718;2023-04-24T08:33:33;11.77;;;6.68;;
42294;SDS011;27947;47.556;18.718;2023-04-24T08:36:02;13.63;;;7.80;;
42294;SDS011;27947;47.556;18.718;2023-04-24T08:38:28;12.77;;;7.25;;
42294;SDS011;27947;47.556;18.718;2023-04-24T08:40:54;10.55;;;6.78;;
42294;SDS011;27947;47.556;18.718;2023-04-24T08:43:21;17.23;;;8.27;;
42294;SDS011;27947;47.556;18.718;2023-04-24T08:45:46;11.63;;;7.85;;
42294;SDS011;27947;47.556;18.718;2023-04-24T08:48:12;11.93;;;7.28;;
42294;SDS011;27947;47.556;18.718;2023-04-24T08:50:38;11.40;;;7.15;;
42294;SDS011;27947;47.556;18.718;2023-04-24T08:53:04;10.13;;;6.35;;
42294;SDS011;27947;47.556;18.718;2023-04-24T08:55:30;10.35;;;6.63;;
42294;SDS011;27947;47.556;18.718;2023-04-24T08:57:55;11.60;;;6.47;;
42294;SDS011;27947;47.556;18.718;2023-04-24T09:00:21;8.95;;;5.95;;
42294;SDS011;27947;47.556;18.718;2023-04-24T09:02:48;8.43;;;5.75;;
42294;SDS011;27947;47.556;18.718;2023-04-24T09:05:13;12.38;;;6.93;;
42294;SDS011;27947;47.556;18.718;2023-04-24T09:07:40;9.98;;;6.35;;
42294;SDS011;27947;47.556;18.718;2023-04-24T09:10:06;14.70;;;6.60;;
42294;SDS011;27947;47.556;18.718;2023-04-24T09:12:32;12.57;;;6.85;;
42294;SDS011;27947;47.556;18.718;2023-04-24T09:14:59;10.93;;;7.43;;
42294;SDS011;27947;47.556;18.718;2023-04-24T09:17:25;15.23;;;7.10;;
42294;SDS011;27947;47.556;18.718;2023-04-24T09:19:52;13.23;;;6.75;;
42294;SDS011;27947;47.556;18.718;2023-04-24T09:22:17;12.63;;;6.90;;
42294;SDS011;27947;47.556;18.718;2023-04-24T09:24:43;11.38;;;7.20;;
42294;SDS011;27947;47.556;18.718;2023-04-24T09:27:10;10.65;;;7.35;;
42294;SDS011;27947;47.556;18.718;2023-04-24T09:29:36;13.20;;;8.10;;
42294;SDS011;27947;47.556;18.718;2023-04-24T09:32:18;10.40;;;7.82;;
42294;SDS011;27947;47.556;18.718;2023-04-24T09:34:43;12.68;;;7.47;;
42294;SDS011;27947;47.556;18.718;2023-04-24T09:37:12;11.45;;;7.50;;
42294;SDS011;27947;47.556;18.718;2023-04-24T09:39:43;10.77;;;8.10;;
42294;SDS011;27947;47.556;18.718;2023-04-24T09:42:08;12.15;;;7.97;;
42294;SDS011;27947;47.556;18.718;2023-04-24T09:44:34;11.95;;;8.57;;
42294;SDS011;27947;47.556;18.718;2023-04-24T09:46:59;13.63;;;8.70;;
42294;SDS011;27947;47.556;18.718;2023-04-24T09:49:25;11.55;;;9.38;;
42294;SDS011;27947;47.556;18.718;2023-04-24T09:51:51;12.15;;;8.30;;
42294;SDS011;27947;47.556;18.718;2023-04-24T09:54:20;15.75;;;9.18;;
42294;SDS011;27947;47.556;18.718;2023-04-24T09:56:50;11.65;;;9.45;;
42294;SDS011;27947;47.556;18.718;2023-04-24T09:59:15;13.77;;;8.25;;
42294;SDS011;27947;47.556;18.718;2023-04-24T10:01:41;14.13;;;8.48;;
42294;SDS011;27947;47.556;18.718;2023-04-24T10:04:17;14.95;;;10.23;;
42294;SDS011;27947;47.556;18.718;2023-04-24T10:06:43;14.18;;;9.20;;
42294;SDS011;27947;47.556;18.718;2023-04-24T10:09:09;14.15;;;10.73;;
42294;SDS011;27947;47.556;18.718;2023-04-24T10:11:36;13.82;;;10.35;;
42294;SDS011;27947;47.556;18.718;2023-04-24T10:14:02;14.77;;;9.60;;
42294;SDS011;27947;47.556;18.718;2023-04-24T10:16:28;14.43;;;9.38;;
42294;SDS011;27947;47.556;18.718;2023-04-24T10:18:55;15.43;;;8.73;;
42294;SDS011;27947;47.556;18.718;2023-04-24T10:21:24;10.80;;;8.25;;
42294;SDS011;27947;47.556;18.718;2023-04-24T10:23:49;12.82;;;8.25;;
42294;SDS011;27947;47.556;18.718;2023-04-24T10:26:16;11.18;;;8.45;;
42294;SDS011;27947;47.556;18.718;2023-04-24T10:28:45;10.90;;;8.05;;
42294;SDS011;27947;47.556;18.718;2023-04-24T10:31:11;18.42;;;9.55;;
42294;SDS011;27947;47.556;18.718;2023-04-24T10:33:37;12.63;;;9.45;;
42294;SDS011;27947;47.556;18.718;2023-04-24T10:36:03;15.45;;;9.90;;
42294;SDS011;27947;47.556;18.718;2023-04-24T10:38:29;13.65;;;9.45;;
42294;SDS011;27947;47.556;18.718;2023-04-24T10:41:08;15.30;;;10.32;;
42294;SDS011;27947;47.556;18.718;2023-04-24T10:43:34;16.23;;;10.63;;
42294;SDS011;27947;47.556;18.718;2023-04-24T10:46:00;16.88;;;10.90;;
42294;SDS011;27947;47.556;18.718;2023-04-24T10:48:27;15.80;;;10.82;;
42294;SDS011;27947;47.556;18.718;2023-04-24T10:50:52;17.73;;;11.00;;
42294;SDS011;27947;47.556;18.718;2023-04-24T10:53:22;12.18;;;8.30;;
42294;SDS011;27947;47.556;18.718;2023-04-24T10:56:06;6.13;;;4.18;;
42294;SDS011;27947;47.556;18.718;2023-04-24T10:58:35;6.18;;;3.90;;
42294;SDS011;27947;47.556;18.718;2023-04-24T11:01:02;8.70;;;4.13;;
42294;SDS011;27947;47.556;18.718;2023-04-24T11:03:29;8.73;;;3.92;;
42294;SDS011;27947;47.556;18.718;2023-04-24T11:06:04;6.00;;;4.03;;
42294;SDS011;27947;47.556;18.718;2023-04-24T11:08:39;5.07;;;3.50;;
42294;SDS011;27947;47.556;18.718;2023-04-24T11:19:07;6.63;;;3.60;;
42294;SDS011;27947;47.556;18.718;2023-04-24T11:21:46;4.32;;;3.22;;
42294;SDS011;27947;47.556;18.718;2023-04-24T11:26:57;6.93;;;3.65;;
42294;SDS011;27947;47.556;18.718;2023-04-24T11:29:24;7.20;;;4.13;;
42294;SDS011;27947;47.556;18.718;2023-04-24T11:32:14;8.65;;;3.38;;
42294;SDS011;27947;47.556;18.718;2023-04-24T11:34:39;4.15;;;3.45;;
42294;SDS011;27947;47.556;18.718;2023-04-24T11:37:05;6.07;;;3.78;;
42294;SDS011;27947;47.556;18.718;2023-04-24T11:39:36;6.07;;;3.42;;
42294;SDS011;27947;47.556;18.718;2023-04-24T11:42:04;6.07;;;3.17;;
42294;SDS011;27947;47.556;18.718;2023-04-24T11:44:31;6.85;;;3.88;;
42294;SDS011;27947;47.556;18.718;2023-04-24T11:46:58;6.00;;;3.60;;
42294;SDS011;27947;47.556;18.718;2023-04-24T11:49:24;5.97;;;3.13;;
42294;SDS011;27947;47.556;18.718;2023-04-24T11:51:49;6.13;;;3.80;;
42294;SDS011;27947;47.556;18.718;2023-04-24T11:54:15;5.30;;;3.80;;
42294;SDS011;27947;47.556;18.718;2023-04-24T11:56:44;7.22;;;4.20;;
42294;SDS011;27947;47.556;18.718;2023-04-24T11:59:09;4.40;;;3.00;;
42294;SDS011;27947;47.556;18.718;2023-04-24T12:01:44;5.18;;;3.00;;
42294;SDS011;27947;47.556;18.718;2023-04-24T12:04:10;8.15;;;3.08;;
42294;SDS011;27947;47.556;18.718;2023-04-24T12:06:36;5.38;;;3.03;;
42294;SDS011;27947;47.556;18.718;2023-04-24T12:09:01;5.55;;;3.35;;
42294;SDS011;27947;47.556;18.718;2023-04-24T12:11:26;4.57;;;3.10;;
42294;SDS011;27947;47.556;18.718;2023-04-24T12:13:52;5.55;;;3.33;;
42294;SDS011;27947;47.556;18.718;2023-04-24T12:16:17;6.40;;;3.45;;
42294;SDS011;27947;47.556;18.718;2023-04-24T12:18:43;6.90;;;3.85;;
42294;SDS011;27947;47.556;18.718;2023-04-24T12:21:15;8.13;;;3.53;;
42294;SDS011;27947;47.556;18.718;2023-04-24T12:23:42;9.30;;;3.10;;
42294;SDS011;27947;47.556;18.718;2023-04-24T12:26:08;6.75;;;3.70;;
42294;SDS011;27947;47.556;18.718;2023-04-24T12:28:37;5.80;;;3.40;;
42294;SDS011;27947;47.556;18.718;2023-04-24T12:31:02;20.90;;;4.35;;
42294;SDS011;27947;47.556;18.718;2023-04-24T12:33:27;10.63;;;3.58;;
42294;SDS011;27947;47.556;18.718;2023-04-24T12:35:57;7.78;;;3.47;;
42294;SDS011;27947;47.556;18.718;2023-04-24T12:38:23;7.90;;;3.38;;
42294;SDS011;27947;47.556;18.718;2023-04-24T12:43:52;8.38;;;3.35;;
42294;SDS011;27947;47.556;18.718;2023-04-24T12:46:18;7.68;;;3.58;;
42294;SDS011;27947;47.556;18.718;2023-04-24T12:48:43;7.55;;;4.03;;
42294;SDS011;27947;47.556;18.718;2023-04-24T12:51:08;6.43;;;3.95;;
42294;SDS011;27947;47.556;18.718;2023-04-24T12:53:34;7.60;;;3.88;;
42294;SDS011;27947;47.556;18.718;2023-04-24T12:55:59;6.90;;;3.55;;
42294;SDS011;27947;47.556;18.718;2023-04-24T12:58:25;5.70;;;4.15;;
42294;SDS011;27947;47.556;18.718;2023-04-24T13:00:50;5.55;;;3.40;;
42294;SDS011;27947;47.556;18.718;2023-04-24T13:03:16;5.75;;;3.85;;
42294;SDS011;27947;47.556;18.718;2023-04-24T13:05:42;8.68;;;3.75;;
42294;SDS011;27947;47.556;18.718;2023-04-24T13:08:07;11.05;;;4.22;;
42294;SDS011;27947;47.556;18.718;2023-04-24T13:10:32;8.45;;;4.05;;
42294;SDS011;27947;47.556;18.718;2023-04-24T13:12:58;4.65;;;3.50;;
42294;SDS011;27947;47.556;18.718;2023-04-24T13:15:23;6.63;;;4.25;;
42294;SDS011;27947;47.556;18.718;2023-04-24T13:17:50;5.65;;;4.13;;
42294;SDS011;27947;47.556;18.718;2023-04-24T13:20:15;9.98;;;4.30;;
42294;SDS011;27947;47.556;18.718;2023-04-24T13:22:40;6.85;;;4.65;;
42294;SDS011;27947;47.556;18.718;2023-04-24T13:25:06;9.00;;;4.75;;
42294;SDS011;27947;47.556;18.718;2023-04-24T13:27:32;6.00;;;4.28;;
42294;SDS011;27947;47.556;18.718;2023-04-24T13:29:57;6.22;;;5.15;;
42294;SDS011;27947;47.556;18.718;2023-04-24T13:32:23;19.50;;;5.22;;
42294;SDS011;27947;47.556;18.718;2023-04-24T13:34:48;8.07;;;4.97;;
42294;SDS011;27947;47.556;18.718;2023-04-24T13:37:13;9.23;;;5.50;;
42294;SDS011;27947;47.556;18.718;2023-04-24T13:39:39;9.55;;;5.50;;
42294;SDS011;27947;47.556;18.718;2023-04-24T13:42:06;8.10;;;5.82;;
42294;SDS011;27947;47.556;18.718;2023-04-24T13:44:31;9.60;;;5.68;;
42294;SDS011;27947;47.556;18.718;2023-04-24T13:46:57;10.25;;;5.45;;
42294;SDS011;27947;47.556;18.718;2023-04-24T13:49:24;6.55;;;5.13;;
42294;SDS011;27947;47.556;18.718;2023-04-24T13:51:53;7.68;;;4.78;;
42294;SDS011;27947;47.556;18.718;2023-04-24T13:54:19;7.65;;;5.03;;
42294;SDS011;27947;47.556;18.718;2023-04-24T13:56:44;8.70;;;4.80;;
42294;SDS011;27947;47.556;18.718;2023-04-24T13:59:11;10.73;;;5.13;;
42294;SDS011;27947;47.556;18.718;2023-04-24T14:01:37;6.93;;;4.85;;
42294;SDS011;27947;47.556;18.718;2023-04-24T14:04:02;7.28;;;5.13;;
42294;SDS011;27947;47.556;18.718;2023-04-24T14:06:28;7.57;;;5.13;;
42294;SDS011;27947;47.556;18.718;2023-04-24T14:08:53;9.73;;;5.50;;
42294;SDS011;27947;47.556;18.718;2023-04-24T14:11:18;9.35;;;5.25;;
42294;SDS011;27947;47.556;18.718;2023-04-24T14:13:44;7.90;;;5.20;;
42294;SDS011;27947;47.556;18.718;2023-04-24T14:16:10;6.13;;;4.60;;
42294;SDS011;27947;47.556;18.718;2023-04-24T14:18:36;5.82;;;5.05;;
42294;SDS011;27947;47.556;18.718;2023-04-24T14:21:01;7.78;;;4.88;;
42294;SDS011;27947;47.556;18.718;2023-04-24T14:23:27;6.07;;;4.65;;
42294;SDS011;27947;47.556;18.718;2023-04-24T14:25:52;6.78;;;5.43;;
42294;SDS011;27947;47.556;18.718;2023-04-24T14:28:20;8.93;;;5.05;;
42294;SDS011;27947;47.556;18.718;2023-04-24T14:30:46;9.18;;;6.05;;
42294;SDS011;27947;47.556;18.718;2023-04-24T14:33:12;5.78;;;5.00;;
42294;SDS011;27947;47.556;18.718;2023-04-24T14:35:38;9.05;;;5.65;;
42294;SDS011;27947;47.556;18.718;2023-04-24T14:38:03;7.47;;;5.63;;
42294;SDS011;27947;47.556;18.718;2023-04-24T14:40:29;7.88;;;5.00;;